Time;durP1;ratioP1;P1;durP2;ratioP2;P2;SDS_P1;SDS_P2;PMS_P1;PMS_P2;Temp;Humidity;BMP_temperature;BMP_pressure;BME280_temperature;BME280_humidity;BME280_pressure;Samples;Min_cycle;Max_cycle;Signal;HPM_P1;HPM_P2
2022/04/10 00:01:28;;;;;;;3.75;2.60;;;;;;;4.40;84.32;99758.41;2952346;79;21029;-83
2022/04/10 00:05:30;;;;;;;5.65;3.60;;;;;;;4.39;84.20;99759.36;2930481;79;21025;-83
2022/04/10 00:09:31;;;;;;;7.15;3.25;;;;;;;4.33;84.34;99752.72;2914748;80;21062;-83
2022/04/10 00:13:32;;;;;;;3.62;2.87;;;;;;;4.27;84.57;99753.95;2879185;81;20985;-83
2022/04/10 00:17:33;;;;;;;3.95;2.58;;;;;;;4.28;84.41;99754.78;2896337;80;21521;-83
2022/04/10 00:21:34;;;;;;;4.83;3.30;;;;;;;4.31;84.34;99755.89;2916441;79;21019;-83
2022/04/10 00:25:38;;;;;;;5.85;4.47;;;;;;;4.30;84.48;99751.58;2859083;82;21074;-83
2022/04/10 00:29:39;;;;;;;3.62;3.33;;;;;;;4.35;84.30;99764.00;2890816;80;21033;-83
2022/04/10 00:33:40;;;;;;;4.72;3.72;;;;;;;4.33;84.35;99755.36;2884600;81;21053;-83
2022/04/10 00:37:41;;;;;;;4.05;3.42;;;;;;;4.35;84.12;99760.05;2922599;80;21006;-83
2022/04/10 00:41:42;;;;;;;4.95;3.35;;;;;;;4.33;84.10;99763.25;2973553;77;21017;-83
2022/04/10 00:45:44;;;;;;;5.17;3.45;;;;;;;4.29;84.07;99766.55;2965800;80;21018;-83
2022/04/10 00:49:45;;;;;;;3.55;3.15;;;;;;;4.29;84.00;99764.37;2978179;78;21021;-83
2022/04/10 00:53:47;;;;;;;4.55;3.85;;;;;;;4.31;83.82;99779.59;2989301;78;21521;-83
2022/04/10 00:57:49;;;;;;;6.12;3.95;;;;;;;4.33;83.22;99779.51;2979281;77;21065;-84
2022/04/10 01:01:50;;;;;;;3.80;3.40;;;;;;;4.27;83.15;99783.38;3008296;77;21005;-83
2022/04/10 01:05:51;;;;;;;8.03;3.65;;;;;;;4.18;83.56;99774.77;2976957;77;21001;-83
2022/04/10 01:09:52;;;;;;;4.25;3.85;;;;;;;4.16;83.62;99781.91;2996315;77;21018;-84
2022/04/10 01:13:54;;;;;;;7.37;3.25;;;;;;;4.11;84.27;99780.39;2962965;77;20995;-83
2022/04/10 01:17:56;;;;;;;5.70;3.37;;;;;;;4.08;84.46;99783.22;3013367;77;21013;-83
2022/04/10 01:22:02;;;;;;;5.58;4.00;;;;;;;4.08;85.02;99779.76;2975615;78;21023;-84
2022/04/10 01:26:04;;;;;;;5.50;4.35;;;;;;;4.08;84.90;99776.64;2975249;78;20996;-83
2022/04/10 01:30:08;;;;;;;4.70;3.45;;;;;;;4.11;84.64;99783.02;2982517;77;21053;-84
2022/04/10 01:34:13;;;;;;;4.22;3.67;;;;;;;4.07;84.85;99781.53;2993955;78;21056;-83
2022/04/10 01:38:16;;;;;;;5.47;3.65;;;;;;;4.08;84.71;99783.22;2967218;77;21645;-83
2022/04/10 01:42:17;;;;;;;5.55;4.97;;;;;;;4.02;84.75;99787.56;3009668;77;20936;-83
2022/04/10 01:46:19;;;;;;;6.25;4.87;;;;;;;3.98;84.77;99792.65;3010374;77;21643;-83
2022/04/10 01:50:22;;;;;;;6.22;3.62;;;;;;;3.92;85.09;99785.11;2982572;77;21056;-83
2022/04/10 01:54:23;;;;;;;3.08;2.77;;;;;;;3.84;86.05;99794.83;3002019;78;21005;-83
2022/04/10 01:58:24;;;;;;;3.67;3.12;;;;;;;3.82;86.17;99797.99;2964719;77;21010;-83
2022/04/10 02:02:25;;;;;;;11.08;4.15;;;;;;;3.77;86.42;99794.36;2942850;80;21040;-83
2022/04/10 02:06:26;;;;;;;5.65;3.70;;;;;;;3.78;86.93;99797.36;2974972;79;20971;-83
2022/04/10 02:10:27;;;;;;;4.50;2.90;;;;;;;3.74;87.00;99811.65;2952862;79;21524;-83
2022/04/10 02:14:29;;;;;;;3.90;3.45;;;;;;;3.71;87.12;99810.49;2970510;79;21481;-83
2022/04/10 02:18:30;;;;;;;4.83;3.47;;;;;;;3.64;87.22;99808.73;2969942;79;21001;-84
2022/04/10 02:22:31;;;;;;;5.55;3.50;;;;;;;3.71;87.14;99819.25;2957823;79;21016;-84
2022/04/10 02:26:32;;;;;;;5.70;2.83;;;;;;;3.71;87.02;99821.02;2970394;79;21078;-83
2022/04/10 02:30:33;;;;;;;6.28;4.10;;;;;;;3.80;86.76;99824.42;2951342;80;21001;-84
2022/04/10 02:34:34;;;;;;;7.15;4.40;;;;;;;3.83;86.24;99833.44;2976552;79;21668;-83
2022/04/10 02:38:36;;;;;;;3.60;2.95;;;;;;;3.92;85.84;99829.85;2976532;80;20981;-84
2022/04/10 02:42:37;;;;;;;7.97;4.40;;;;;;;3.88;85.78;99821.78;2943351;80;21072;-84
2022/04/10 02:46:38;;;;;;;5.92;4.12;;;;;;;3.82;86.15;99833.06;2949906;78;21544;-84
2022/04/10 02:50:40;;;;;;;5.10;3.83;;;;;;;3.88;86.00;99833.62;2971926;79;21607;-83
2022/04/10 02:54:41;;;;;;;4.62;3.47;;;;;;;3.85;85.94;99826.30;2966114;80;21095;-82
2022/04/10 02:58:42;;;;;;;4.08;3.67;;;;;;;3.87;85.78;99823.58;2950063;79;21116;-83
2022/04/10 03:02:43;;;;;;;8.88;3.67;;;;;;;3.84;85.96;99833.81;2971241;79;21020;-83
2022/04/10 03:06:45;;;;;;;7.50;4.50;;;;;;;3.88;85.77;99829.67;2975657;79;21056;-83
2022/04/10 03:10:46;;;;;;;5.20;3.70;;;;;;;3.89;85.73;99836.62;2953948;79;20981;-83
2022/04/10 03:14:47;;;;;;;11.43;4.17;;;;;;;3.87;85.89;99844.63;2966971;80;21088;-83
2022/04/10 03:18:50;;;;;;;4.60;4.08;;;;;;;3.85;85.81;99846.03;2940648;80;21332;-84
2022/04/10 03:22:51;;;;;;;4.92;2.83;;;;;;;3.93;85.64;99856.54;2960654;80;20975;-84
2022/04/10 03:26:52;;;;;;;6.00;4.17;;;;;;;3.98;85.35;99864.54;2951034;79;21032;-84
2022/04/10 03:30:53;;;;;;;7.53;4.53;;;;;;;4.02;85.25;99863.03;2976646;80;21041;-83
2022/04/10 03:34:54;;;;;;;5.83;4.45;;;;;;;4.08;84.81;99867.45;2951324;79;21060;-83
2022/04/10 03:38:55;;;;;;;8.70;5.42;;;;;;;4.02;84.79;99873.10;2939808;79;21021;-83
2022/04/10 03:42:56;;;;;;;7.12;4.72;;;;;;;3.99;85.36;99876.76;2940338;78;21535;-83
2022/04/10 03:46:58;;;;;;;5.60;5.10;;;;;;;4.00;85.42;99880.25;2934353;80;21026;-83
2022/04/10 03:50:59;;;;;;;7.22;5.92;;;;;;;4.03;85.29;99888.41;2939298;80;21024;-83
2022/04/10 03:55:00;;;;;;;6.30;5.33;;;;;;;4.01;85.14;99892.47;3003670;79;21024;-83
2022/04/10 03:59:01;;;;;;;5.42;4.67;;;;;;;3.97;85.04;99900.19;2972660;79;21515;-83
2022/04/10 04:03:03;;;;;;;7.95;4.90;;;;;;;3.99;84.97;99905.71;3003840;77;21431;-83
2022/04/10 04:07:04;;;;;;;7.08;4.40;;;;;;;3.95;84.82;99913.42;2971132;80;21577;-83
2022/04/10 04:11:05;;;;;;;4.33;3.15;;;;;;;3.94;84.84;99908.27;2971541;78;21018;-83
2022/04/10 04:15:08;;;;;;;7.40;4.33;;;;;;;3.91;84.32;99916.32;2963977;80;21324;-83
2022/04/10 04:19:09;;;;;;;8.85;5.78;;;;;;;3.87;84.31;99923.58;2981885;77;21069;-83
2022/04/10 04:23:10;;;;;;;5.00;4.53;;;;;;;3.84;84.09;99920.64;2924475;80;21036;-83
2022/04/10 04:27:12;;;;;;;9.08;4.50;;;;;;;3.81;84.03;99924.78;2965497;79;21712;-83
2022/04/10 04:31:13;;;;;;;11.43;5.87;;;;;;;3.80;84.06;99934.06;2997560;78;21616;-83
2022/04/10 04:35:15;;;;;;;8.65;5.30;;;;;;;3.73;84.19;99941.47;2950864;78;21006;-83
2022/04/10 04:39:16;;;;;;;10.20;5.50;;;;;;;3.82;84.52;99946.20;2995519;78;21053;-83
2022/04/10 04:43:17;;;;;;;5.00;4.40;;;;;;;3.94;83.89;99953.83;2980585;78;21037;-82
2022/04/10 04:47:18;;;;;;;9.50;5.58;;;;;;;4.03;83.46;99958.16;2982100;78;20985;-83
2022/04/10 04:51:19;;;;;;;9.85;5.62;;;;;;;4.14;83.28;99970.22;2984011;77;21044;-83
2022/04/10 04:55:21;;;;;;;8.53;5.80;;;;;;;4.23;83.28;99972.77;2992425;77;21025;-83
2022/04/10 04:59:23;;;;;;;7.30;5.50;;;;;;;4.84;83.09;99981.78;2967889;77;21021;-84
2022/04/10 05:03:24;;;;;;;7.75;4.80;;;;;;;5.40;82.25;99990.12;2986709;78;21789;-83
2022/04/10 05:07:25;;;;;;;6.10;5.08;;;;;;;5.47;79.51;99994.04;2978100;78;21005;-82
2022/04/10 05:11:26;;;;;;;7.58;4.80;;;;;;;5.93;80.66;100000.71;2983572;78;21036;-84
2022/04/10 05:15:28;;;;;;;5.72;4.28;;;;;;;6.41;78.38;99997.51;2991319;78;21084;-83
2022/04/10 05:19:29;;;;;;;4.37;3.55;;;;;;;6.38;76.60;99997.73;3010802;77;21021;-83
2022/04/10 05:23:30;;;;;;;6.75;4.47;;;;;;;6.18;77.04;100006.17;3015674;78;21053;-83
2022/04/10 05:27:31;;;;;;;3.80;3.50;;;;;;;5.84;78.32;100011.41;2998220;77;21015;-83
2022/04/10 05:31:32;;;;;;;6.92;4.47;;;;;;;5.66;79.15;100021.86;3000005;77;20958;-85
2022/04/10 05:35:34;;;;;;;7.10;4.62;;;;;;;5.43;79.80;100018.94;2983343;77;21076;-84
2022/04/10 05:39:35;;;;;;;5.33;4.47;;;;;;;5.39;79.72;100022.73;2984367;78;21536;-84
2022/04/10 05:43:36;;;;;;;9.78;6.10;;;;;;;5.52;79.72;100031.55;3010276;77;20985;-84
2022/04/10 05:47:39;;;;;;;6.40;4.85;;;;;;;5.58;79.66;100029.82;3007711;77;20993;-85
2022/04/10 05:51:40;;;;;;;7.62;5.90;;;;;;;5.64;79.90;100032.54;2980595;77;21050;-84
2022/04/10 05:55:41;;;;;;;7.50;4.80;;;;;;;5.54;78.50;100032.75;2986566;78;21006;-85
2022/04/10 05:59:42;;;;;;;14.50;6.70;;;;;;;5.44;79.96;100043.05;3003955;77;21014;-82
2022/04/10 06:03:43;;;;;;;9.03;4.37;;;;;;;5.52;79.73;100048.70;3001871;77;20997;-82
2022/04/10 06:07:44;;;;;;;6.92;5.67;;;;;;;5.55;80.48;100055.09;3002874;77;21005;-81
2022/04/10 06:11:45;;;;;;;8.18;5.22;;;;;;;5.71;79.66;100047.50;2992287;77;21041;-83
2022/04/10 06:15:47;;;;;;;6.80;5.35;;;;;;;5.84;79.94;100064.70;2987213;77;21049;-81
2022/04/10 06:19:49;;;;;;;6.22;4.42;;;;;;;6.02;79.68;100067.94;2994774;77;21018;-88
2022/04/10 06:23:50;;;;;;;4.97;4.40;;;;;;;5.93;77.87;100075.13;2993594;77;21017;-83
2022/04/10 06:27:51;;;;;;;7.08;4.53;;;;;;;6.07;77.46;100076.39;2983526;77;21018;-88
2022/04/10 06:31:53;;;;;;;6.95;4.08;;;;;;;6.06;78.63;100079.98;2995668;77;21040;-82
2022/04/10 06:35:54;;;;;;;10.18;6.15;;;;;;;6.12;77.71;100085.34;2992329;77;21108;-83
2022/04/10 06:39:55;;;;;;;5.00;3.85;;;;;;;5.95;78.95;100091.71;2948685;78;21042;-83
2022/04/10 06:43:57;;;;;;;4.50;3.83;;;;;;;5.90;76.51;100085.89;2970805;78;21621;-82
2022/04/10 06:47:58;;;;;;;7.78;4.50;;;;;;;5.78;77.48;100087.52;2962568;78;21007;-83
2022/04/10 06:51:59;;;;;;;6.97;3.52;;;;;;;5.90;77.63;100087.22;2948874;78;21034;-83
2022/04/10 06:56:00;;;;;;;6.22;4.95;;;;;;;5.92;76.12;100078.23;2965498;78;21063;-82
2022/04/10 07:00:01;;;;;;;5.22;3.37;;;;;;;6.04;76.16;100099.05;2955861;78;20955;-83
2022/04/10 07:04:04;;;;;;;8.28;3.27;;;;;;;6.10;74.66;100099.98;2962311;78;21038;-83
2022/04/10 07:08:06;;;;;;;4.33;2.65;;;;;;;6.01;72.64;100090.02;2946497;78;21324;-83
2022/04/10 07:12:08;;;;;;;3.30;2.65;;;;;;;5.94;74.27;100082.10;2893752;81;21016;-82
2022/04/10 07:16:09;;;;;;;5.05;4.28;;;;;;;5.92;72.83;100083.51;2906679;80;21803;-83
2022/04/10 07:20:11;;;;;;;7.10;4.15;;;;;;;6.53;73.80;100086.16;2883433;81;21053;-83
2022/04/10 07:24:12;;;;;;;5.42;3.52;;;;;;;6.84;73.12;100086.20;2878291;81;21034;-83
2022/04/10 07:28:13;;;;;;;4.40;3.30;;;;;;;6.83;69.59;100092.91;2903274;81;21046;-83
2022/04/10 07:32:14;;;;;;;6.90;3.77;;;;;;;7.14;71.79;100090.77;2899941;80;21569;-83
2022/04/10 07:36:15;;;;;;;11.45;3.37;;;;;;;7.21;68.60;100095.98;2890730;80;21115;-83
2022/04/10 07:40:19;;;;;;;3.98;2.40;;;;;;;7.05;67.13;100102.84;2951997;79;21043;-83
2022/04/10 07:44:20;;;;;;;6.33;2.47;;;;;;;7.15;69.36;100102.55;2953521;80;21027;-82
2022/04/10 07:48:21;;;;;;;6.60;3.95;;;;;;;6.92;66.36;100098.89;2940859;80;21548;-83
2022/04/10 07:52:24;;;;;;;9.13;2.58;;;;;;;6.77;66.79;100115.81;2933437;79;21008;-82
2022/04/10 07:56:25;;;;;;;5.67;3.10;;;;;;;6.64;67.87;100114.00;2919970;80;21697;-83
2022/04/10 08:00:32;;;;;;;4.40;3.00;;;;;;;6.66;70.69;100123.98;2927532;80;21078;-83
2022/04/10 08:04:30;;;;;;;3.12;2.50;;;;;;;6.58;70.78;100125.00;2897968;80;21042;-83
2022/04/10 08:08:31;;;;;;;4.55;3.40;;;;;;;6.50;72.67;100140.05;2919841;80;21058;-83
2022/04/10 08:12:32;;;;;;;8.20;3.65;;;;;;;6.53;71.80;100139.01;2944033;79;22154;-83
2022/04/10 08:16:33;;;;;;;6.78;3.70;;;;;;;6.50;70.14;100147.15;2962930;79;21544;-82
2022/04/10 08:20:36;;;;;;;3.80;2.87;;;;;;;6.42;71.32;100156.41;2963114;79;21009;-83
2022/04/10 08:24:37;;;;;;;6.87;3.10;;;;;;;6.33;71.70;100161.00;2962512;79;21024;-83
2022/04/10 08:28:38;;;;;;;9.08;3.83;;;;;;;6.35;74.05;100170.98;2936222;80;21072;-82
2022/04/10 08:32:42;;;;;;;7.42;4.33;;;;;;;6.40;72.62;100168.05;2951487;78;21073;-83
2022/04/10 08:36:44;;;;;;;9.25;3.52;;;;;;;6.48;70.96;100169.70;2873020;80;21097;-81
2022/04/10 08:40:46;;;;;;;7.42;3.42;;;;;;;6.59;71.56;100172.94;2893911;80;20966;-82
2022/04/10 08:44:47;;;;;;;4.62;2.47;;;;;;;6.66;71.20;100174.21;2899487;81;21033;-82
2022/04/10 08:48:49;;;;;;;12.47;2.67;;;;;;;7.21;69.10;100161.30;2941889;79;20978;-82
2022/04/10 08:52:54;;;;;;;7.70;2.95;;;;;;;7.50;65.27;100163.22;2912593;80;21041;-82
2022/04/10 08:56:57;;;;;;;2.30;2.10;;;;;;;7.69;63.66;100153.96;2961947;79;20988;-84
2022/04/10 09:00:58;;;;;;;3.08;2.65;;;;;;;7.78;63.81;100155.92;2900154;81;21136;-83
2022/04/10 09:04:59;;;;;;;6.58;2.47;;;;;;;7.73;64.36;100154.09;2924829;81;21025;-82
2022/04/10 09:09:16;;;;;;;12.13;5.25;;;;;;;7.50;65.72;100164.54;2924796;80;21762;-83
2022/04/10 09:13:28;;;;;;;3.80;2.98;;;;;;;7.12;68.15;100182.63;2899200;81;21065;-83
2022/04/10 09:17:30;;;;;;;19.98;7.78;;;;;;;7.10;68.59;100176.59;2923125;80;21546;-83
2022/04/10 09:21:34;;;;;;;13.83;6.65;;;;;;;7.65;70.95;100160.41;2908416;81;21448;-84
2022/04/10 09:47:14;;;;;;;7.40;3.98;;;;;;;8.00;65.94;100155.69;2814483;80;21737;-86
2022/04/10 09:51:15;;;;;;;5.17;3.80;;;;;;;8.53;66.80;100149.20;2856541;82;21036;-83
2022/04/10 09:55:37;;;;;;;6.70;3.35;;;;;;;8.73;62.18;100146.34;2857810;82;21543;-83
2022/04/10 09:59:49;;;;;;;4.03;2.65;;;;;;;9.29;62.49;100141.59;2857481;82;21033;-86
2022/04/10 10:03:51;;;;;;;18.20;5.33;;;;;;;9.16;62.61;100166.06;2856408;82;21098;-82
2022/04/10 10:07:52;;;;;;;12.73;6.33;;;;;;;8.67;62.47;100164.91;2841289;81;21031;-81
2022/04/10 10:11:54;;;;;;;4.10;2.50;;;;;;;8.17;64.30;100174.80;2869701;81;21019;-87
2022/04/10 10:15:56;;;;;;;15.18;3.83;;;;;;;8.09;63.92;100164.30;2812180;82;21075;-87
2022/04/10 10:20:00;;;;;;;8.90;5.03;;;;;;;8.40;61.68;100155.87;2847866;81;21443;-80
2022/04/10 10:24:02;;;;;;;7.92;4.42;;;;;;;8.63;63.96;100171.39;2855863;81;21027;-84
2022/04/10 10:28:15;;;;;;;3.87;2.62;;;;;;;8.61;64.90;100167.18;2856447;82;21004;-84
2022/04/10 10:32:39;;;;;;;6.70;2.00;;;;;;;8.72;62.67;100157.91;2858591;82;21094;-84
2022/04/10 10:36:41;;;;;;;3.35;3.02;;;;;;;8.83;60.96;100154.44;2847154;82;21500;-83
2022/04/10 10:40:42;;;;;;;5.35;3.42;;;;;;;9.31;61.83;100145.93;2858144;82;21616;-83
2022/04/10 10:44:49;;;;;;;6.62;3.45;;;;;;;9.55;60.13;100130.70;2858457;81;21548;-88
2022/04/10 10:49:17;;;;;;;3.75;2.00;;;;;;;9.78;61.12;100148.41;2859393;82;21063;-86
2022/04/10 10:53:55;;;;;;;5.85;2.52;;;;;;;9.23;56.83;100139.39;2847531;82;21061;-84
2022/04/10 10:58:02;;;;;;;4.42;2.37;;;;;;;9.25;60.60;100145.45;2849382;82;21330;-84
2022/04/10 11:02:13;;;;;;;4.78;2.40;;;;;;;9.37;59.37;100146.77;2857195;82;21087;-83
2022/04/10 11:06:21;;;;;;;4.35;2.83;;;;;;;9.66;59.47;100146.27;2869058;81;21559;-83
2022/04/10 11:10:24;;;;;;;4.45;2.50;;;;;;;9.86;58.86;100141.98;2857415;82;21013;-84
2022/04/10 11:14:39;;;;;;;4.42;2.20;;;;;;;10.32;56.30;100157.30;2858279;82;21087;-85
2022/04/10 11:18:53;;;;;;;4.62;1.85;;;;;;;10.63;56.30;100156.10;2846634;82;21011;-84
2022/04/10 11:23:00;;;;;;;8.83;2.02;;;;;;;10.18;57.08;100162.90;2857654;82;20993;-87
2022/04/10 11:27:09;;;;;;;2.17;1.82;;;;;;;9.78;59.03;100153.23;2858753;81;21042;-82
2022/04/10 11:31:34;;;;;;;4.53;1.82;;;;;;;9.47;56.91;100161.02;2843910;83;21038;-83
2022/04/10 11:35:38;;;;;;;2.95;2.02;;;;;;;9.29;57.67;100174.77;2851562;81;20972;-84
2022/04/10 11:39:41;;;;;;;5.92;4.47;;;;;;;9.38;60.13;100179.84;2858935;82;21068;-83
2022/04/10 11:43:44;;;;;;;4.97;3.15;;;;;;;9.24;57.17;100165.00;2868999;82;21471;-84
2022/04/10 11:47:47;;;;;;;5.10;3.30;;;;;;;9.10;59.54;100167.38;2859106;82;21020;-83
2022/04/10 11:51:54;;;;;;;8.08;3.62;;;;;;;9.28;59.52;100158.95;2848143;82;21094;-83
2022/04/10 11:55:55;;;;;;;5.58;3.75;;;;;;;9.10;59.61;100160.75;2856742;82;21084;-81
2022/04/10 11:59:56;;;;;;;4.62;2.87;;;;;;;8.89;60.77;100168.58;2857599;82;21904;-82
2022/04/10 12:09:31;;;;;;;3.30;2.60;;;;;;;9.45;58.56;100165.60;2933030;79;21187;-84
2022/04/10 12:13:37;;;;;;;4.05;1.87;;;;;;;10.02;57.62;100158.01;2902762;80;21592;-82
2022/04/10 12:17:39;;;;;;;6.05;2.90;;;;;;;9.91;57.62;100154.90;2894363;80;21072;-84
2022/04/10 12:21:49;;;;;;;14.50;2.87;;;;;;;10.06;57.44;100151.47;2838366;82;21038;-82
2022/04/10 12:25:55;;;;;;;9.50;2.58;;;;;;;10.22;55.54;100152.37;2834745;82;20982;-82
2022/04/10 12:29:57;;;;;;;4.58;2.08;;;;;;;10.13;58.69;100152.16;2760376;83;21097;-85
2022/04/10 12:34:00;;;;;;;4.72;1.95;;;;;;;9.57;55.71;100162.45;2803807;82;21017;-88
2022/04/10 12:38:06;;;;;;;6.72;3.52;;;;;;;8.73;58.78;100176.01;2784999;83;21052;-84
2022/04/10 12:42:13;;;;;;;6.15;2.42;;;;;;;8.44;63.79;100188.64;2780688;83;21695;-85
2022/04/10 12:46:14;;;;;;;3.70;2.12;;;;;;;8.12;64.19;100189.23;2834037;82;20999;-84
2022/04/10 12:50:22;;;;;;;4.70;2.52;;;;;;;8.33;67.80;100171.85;2839892;82;21085;-84
2022/04/10 12:54:41;;;;;;;5.12;3.33;;;;;;;8.60;66.59;100183.55;2834081;82;21098;-84
2022/04/10 12:58:47;;;;;;;4.97;3.42;;;;;;;8.64;66.57;100181.03;2805353;82;21581;-83
2022/04/10 13:02:49;;;;;;;;;;;;;;;8.76;67.86;100173.12;2839305;82;21646;-84
2022/04/10 13:06:52;;;;;;;4.17;2.77;;;;;;;8.89;63.40;100165.06;2838517;82;20136;-83
2022/04/10 13:10:58;;;;;;;3.35;2.42;;;;;;;8.96;61.92;100168.45;2837087;82;21558;-84
2022/04/10 13:15:00;;;;;;;1.95;1.70;;;;;;;9.25;63.39;100169.34;2834735;82;31496;-83
2022/04/10 13:19:04;;;;;;;6.85;2.92;;;;;;;9.56;63.65;100164.75;2834926;82;21046;-83
2022/04/10 13:23:07;;;;;;;5.65;3.15;;;;;;;9.91;61.33;100163.70;2842797;82;21066;-84
2022/04/10 13:27:09;;;;;;;7.65;2.72;;;;;;;10.10;61.64;100172.36;2843531;82;21050;-82
2022/04/10 13:31:10;;;;;;;4.37;3.35;;;;;;;10.27;62.18;100170.13;2841032;82;21003;-84
2022/04/10 13:35:11;;;;;;;6.00;3.47;;;;;;;10.43;61.03;100155.96;2819948;82;21038;-84
2022/04/10 13:39:13;;;;;;;5.10;3.00;;;;;;;10.06;59.89;100166.94;2844642;82;21014;-84
2022/04/10 13:43:14;;;;;;;4.50;2.58;;;;;;;9.56;59.60;100158.94;2841943;82;21019;-84
2022/04/10 13:47:15;;;;;;;5.12;2.50;;;;;;;8.89;65.84;100191.12;2845023;82;21055;-84
2022/04/10 13:51:16;;;;;;;4.15;2.47;;;;;;;9.02;70.64;100173.77;2834191;82;20991;-86
2022/04/10 13:55:17;;;;;;;3.90;2.87;;;;;;;9.35;67.69;100169.47;2843213;82;21026;-83
2022/04/10 13:59:18;;;;;;;3.67;1.57;;;;;;;9.58;63.83;100160.16;2832672;82;21097;-85
2022/04/10 14:03:19;;;;;;;3.70;2.22;;;;;;;9.71;61.28;100156.03;2841007;82;20987;-84
2022/04/10 14:07:21;;;;;;;2.10;1.90;;;;;;;9.96;62.14;100139.42;2867605;81;21017;-85
2022/04/10 14:11:22;;;;;;;4.87;2.87;;;;;;;10.06;61.42;100149.67;2917647;79;21539;-84
2022/04/10 14:15:23;;;;;;;3.37;2.58;;;;;;;10.26;62.42;100161.80;2928260;79;21057;-86
2022/04/10 14:19:26;;;;;;;3.92;2.17;;;;;;;10.33;64.55;100156.32;2916152;79;21571;-85
2022/04/10 14:23:27;;;;;;;5.17;3.27;;;;;;;10.44;62.73;100164.77;2926352;79;21065;-84
2022/04/10 14:27:28;;;;;;;6.72;3.50;;;;;;;10.35;61.99;100158.36;2928341;79;21025;-84
2022/04/10 14:31:30;;;;;;;3.95;2.80;;;;;;;10.56;64.18;100166.88;2924394;79;21026;-83
2022/04/10 14:35:31;;;;;;;8.33;2.80;;;;;;;10.65;61.17;100154.16;2927089;79;21085;-85
2022/04/10 14:39:32;;;;;;;3.87;2.98;;;;;;;10.65;63.18;100169.25;2920969;79;21044;-83
2022/04/10 14:43:35;;;;;;;6.75;3.33;;;;;;;10.63;60.49;100179.18;2922244;80;21068;-84
2022/04/10 14:47:36;;;;;;;5.45;2.25;;;;;;;10.12;60.85;100181.05;2933062;79;21050;-86
2022/04/10 14:51:39;;;;;;;7.70;1.40;;;;;;;9.55;57.60;100190.44;2902278;79;21063;-83
2022/04/10 14:55:40;;;;;;;3.75;1.00;;;;;;;8.15;66.84;100210.20;2928685;79;21026;-82
2022/04/10 14:59:41;;;;;;;0.78;0.60;;;;;;;7.39;69.38;100239.41;2883011;79;21064;-83
2022/04/10 15:03:42;;;;;;;2.65;1.20;;;;;;;6.91;71.32;100226.78;2920824;79;21680;-84
2022/04/10 15:07:46;;;;;;;2.47;1.45;;;;;;;6.49;73.82;100244.55;2930865;79;22280;-83
2022/04/10 15:11:47;;;;;;;1.57;0.75;;;;;;;6.38;75.91;100265.04;2896045;79;21007;-83
2022/04/10 15:15:48;;;;;;;3.85;1.55;;;;;;;6.35;75.89;100256.00;2935115;79;21561;-82
2022/04/10 15:19:49;;;;;;;1.85;0.70;;;;;;;6.82;72.90;100253.82;2930374;79;21019;-84
2022/04/10 15:23:52;;;;;;;0.65;0.35;;;;;;;7.19;72.67;100226.70;2938119;79;21014;-82
2022/04/10 15:27:53;;;;;;;1.47;1.22;;;;;;;7.70;67.03;100217.87;2898551;79;21651;-81
2022/04/10 15:31:55;;;;;;;1.75;0.60;;;;;;;8.15;66.81;100218.62;2939158;78;21522;-82
2022/04/10 15:35:56;;;;;;;1.07;1.00;;;;;;;8.48;64.45;100221.08;2934204;79;21046;-81
2022/04/10 15:39:57;;;;;;;2.27;0.85;;;;;;;8.73;66.76;100231.20;2944176;79;21006;-81
2022/04/10 15:43:58;;;;;;;0.68;0.68;;;;;;;8.79;65.88;100247.14;2899921;80;20976;-82
2022/04/10 15:47:59;;;;;;;2.90;0.98;;;;;;;8.83;66.06;100246.80;2948651;79;21061;-81
2022/04/10 15:52:01;;;;;;;0.90;0.85;;;;;;;8.75;67.61;100260.28;2934636;79;21015;-81
2022/04/10 15:56:02;;;;;;;1.10;1.00;;;;;;;8.77;68.34;100261.00;2937667;79;21007;-81
2022/04/10 16:00:06;;;;;;;6.00;1.40;;;;;;;8.76;68.70;100260.64;2895424;79;20985;-86
2022/04/10 16:04:07;;;;;;;1.35;0.90;;;;;;;8.71;68.46;100256.53;2895246;79;21023;-82
2022/04/10 16:08:09;;;;;;;2.33;1.80;;;;;;;8.60;69.53;100263.59;2934178;80;21011;-81
2022/04/10 16:12:11;;;;;;;1.87;1.60;;;;;;;8.60;70.40;100267.08;2930915;80;21023;-86
2022/04/10 16:16:12;;;;;;;3.22;2.35;;;;;;;8.59;70.86;100263.23;2917201;79;21066;-82
2022/04/10 16:20:15;;;;;;;3.95;1.90;;;;;;;8.54;70.87;100262.23;2917341;79;21089;-83
2022/04/10 16:24:17;;;;;;;6.42;2.42;;;;;;;8.57;70.20;100253.59;2922527;79;20998;-82
2022/04/10 16:32:39;;;;;;;8.15;2.40;;;;;;;8.54;68.50;100246.33;2897456;79;20983;-82
2022/04/10 16:36:40;;;;;;;5.58;2.52;;;;;;;8.25;68.44;100251.45;2937518;79;21033;-83
2022/04/10 16:40:43;;;;;;;5.45;2.35;;;;;;;8.39;70.19;100261.54;2923418;79;21081;-83
2022/04/10 16:44:44;;;;;;;2.47;2.15;;;;;;;8.37;71.01;100262.12;2924797;79;21045;-82
2022/04/10 16:48:45;;;;;;;9.30;3.27;;;;;;;8.44;70.37;100258.89;2934384;79;21002;-83
2022/04/10 16:52:47;;;;;;;3.60;2.52;;;;;;;8.48;70.84;100260.02;2862661;81;21082;-83
2022/04/10 16:56:48;;;;;;;3.42;2.92;;;;;;;8.48;70.74;100259.52;2877382;81;21021;-82
2022/04/10 17:00:49;;;;;;;7.22;1.90;;;;;;;8.43;71.15;100262.50;2868504;81;21219;-82
2022/04/10 17:04:52;;;;;;;7.60;3.45;;;;;;;8.30;71.62;100260.41;2809867;83;21012;-83
2022/04/10 17:08:53;;;;;;;6.15;2.10;;;;;;;8.15;72.01;100264.52;2872303;81;21240;-83
2022/04/10 17:12:54;;;;;;;3.52;1.87;;;;;;;7.93;72.32;100265.20;2811771;83;21019;-83
2022/04/10 17:16:55;;;;;;;2.45;1.57;;;;;;;7.72;72.96;100263.13;2866475;81;21014;-87
2022/04/10 17:20:56;;;;;;;4.45;2.22;;;;;;;7.55;73.18;100262.98;2868719;81;21058;-84
2022/04/10 17:24:57;;;;;;;2.98;2.15;;;;;;;7.35;73.54;100263.52;2868857;81;21563;-83
2022/04/10 17:29:00;;;;;;;4.03;1.95;;;;;;;7.21;73.39;100267.13;2869768;81;21546;-84
2022/04/10 17:33:01;;;;;;;4.25;2.33;;;;;;;6.98;73.69;100274.33;2866059;81;21073;-84
2022/04/10 17:37:02;;;;;;;4.85;3.85;;;;;;;6.76;74.47;100278.03;2858213;82;21011;-83
2022/04/10 17:41:04;;;;;;;12.37;6.10;;;;;;;6.62;74.69;100275.81;2879586;82;21011;-83
2022/04/10 17:45:07;;;;;;;7.20;4.00;;;;;;;6.49;74.81;100279.73;2859708;81;20999;-84
2022/04/10 17:49:10;;;;;;;5.60;3.47;;;;;;;6.32;75.33;100290.54;2898102;81;21031;-81
2022/04/10 17:53:11;;;;;;;3.90;2.85;;;;;;;6.18;75.62;100296.71;2887831;81;21051;-82
2022/04/10 17:57:12;;;;;;;5.03;3.35;;;;;;;6.07;75.98;100296.06;2886889;81;21038;-81
2022/04/10 18:01:17;;;;;;;5.15;2.58;;;;;;;5.99;76.01;100291.23;2845976;83;21157;-82
2022/04/10 18:05:18;;;;;;;8.80;3.77;;;;;;;5.90;76.50;100303.70;2845733;82;21030;-84
2022/04/10 18:09:20;;;;;;;6.08;2.67;;;;;;;5.83;76.57;100311.98;2873835;81;21081;-84
2022/04/10 18:13:21;;;;;;;7.42;3.70;;;;;;;5.78;77.19;100317.16;2846971;82;21011;-84
2022/04/10 18:17:22;;;;;;;3.75;2.85;;;;;;;5.82;77.45;100334.05;2847582;82;21865;-83
2022/04/10 18:21:24;;;;;;;11.15;6.03;;;;;;;5.55;79.96;100344.48;2846622;82;21590;-83
2022/04/10 18:25:26;;;;;;;8.30;5.10;;;;;;;5.50;82.33;100363.25;2845898;82;21558;-84
2022/04/10 18:29:27;;;;;;;8.50;5.97;;;;;;;5.62;82.41;100370.04;2846158;82;21034;-82
2022/04/10 18:33:29;;;;;;;6.97;2.42;;;;;;;5.66;83.31;100394.84;2843666;82;21022;-82
2022/04/10 18:37:30;;;;;;;1.67;1.02;;;;;;;5.38;85.16;100404.86;2876496;80;21618;-80
2022/04/10 18:41:31;;;;;;;1.10;0.68;;;;;;;5.02;86.16;100410.84;2884734;82;21040;-80
2022/04/10 18:45:32;;;;;;;1.32;0.50;;;;;;;4.89;88.51;100426.48;2878790;82;20984;-80
2022/04/10 18:49:37;;;;;;;0.53;0.50;;;;;;;5.06;87.52;100413.69;2876249;82;21027;-80
2022/04/10 18:53:39;;;;;;;57.13;29.50;;;;;;;5.12;86.28;100412.49;2878464;82;21000;-81
2022/04/10 18:57:41;;;;;;;27.30;13.28;;;;;;;5.21;85.10;100409.31;2874732;82;21503;-80
2022/04/10 19:01:44;;;;;;;9.43;4.97;;;;;;;5.13;85.66;100413.70;2876164;82;21613;-81
2022/04/10 19:05:46;;;;;;;7.62;4.78;;;;;;;5.05;86.62;100410.67;2877471;81;21051;-81
2022/04/10 19:09:47;;;;;;;8.23;5.55;;;;;;;5.04;87.83;100413.37;2876607;82;21016;-81
2022/04/10 19:13:49;;;;;;;19.92;12.15;;;;;;;5.02;88.54;100416.58;2875388;82;21613;-80
2022/04/10 19:17:51;;;;;;;10.60;7.10;;;;;;;5.00;88.80;100409.61;2871299;82;21119;-80
2022/04/10 19:21:52;;;;;;;7.58;5.45;;;;;;;5.03;88.71;100406.41;2860284;82;21500;-81
2022/04/10 19:25:53;;;;;;;8.78;4.90;;;;;;;5.02;88.51;100415.26;2850738;82;21031;-81
2022/04/10 19:29:55;;;;;;;12.15;5.30;;;;;;;5.10;87.31;100415.66;2807493;81;21591;-83
2022/04/10 19:33:56;;;;;;;5.90;5.20;;;;;;;5.17;86.19;100418.34;2864549;81;21067;-81